Time;durP1;ratioP1;P1;durP2;ratioP2;P2;SDS_P1;SDS_P2;PMS_P1;PMS_P2;Temp;Humidity;BMP_temperature;BMP_pressure;BME280_temperature;BME280_humidity;BME280_pressure;Samples;Min_cycle;Max_cycle;Signal;HPM_P1;HPM_P2
2022/01/08 00:01:09;;;;;;;5.32;3.12;;;2.10;99.90;;;;;;493497;241;27472;-69
2022/01/08 00:03:07;;;;;;;5.12;3.47;;;2.10;99.90;;;;;;493425;241;27524;-68
2022/01/08 00:05:08;;;;;;;3.70;3.20;;;2.10;99.90;;;;;;493489;241;27513;-68
2022/01/08 00:07:10;;;;;;;4.00;3.70;;;2.10;99.90;;;;;;493457;241;27539;-69
2022/01/08 00:09:11;;;;;;;5.30;3.35;;;2.10;99.90;;;;;;493443;241;27603;-69
2022/01/08 00:11:17;;;;;;;5.12;3.78;;;2.10;99.90;;;;;;493453;241;28669;-69
2022/01/08 00:13:14;;;;;;;3.95;3.53;;;2.00;99.90;;;;;;493450;241;27893;-68
2022/01/08 00:15:15;;;;;;;3.60;3.12;;;1.90;99.90;;;;;;493490;241;28136;-69
2022/01/08 00:17:16;;;;;;;4.15;3.75;;;1.90;99.90;;;;;;493504;241;28012;-68
2022/01/08 00:19:17;;;;;;;3.60;3.30;;;1.90;99.90;;;;;;493483;241;27511;-68
2022/01/08 00:21:19;;;;;;;3.08;2.87;;;1.90;99.90;;;;;;493486;241;27572;-69
2022/01/08 00:23:20;;;;;;;4.82;3.40;;;1.90;99.90;;;;;;493483;241;27508;-68
2022/01/08 00:25:21;;;;;;;4.53;4.07;;;1.90;99.90;;;;;;493480;241;27516;-68
2022/01/08 00:27:22;;;;;;;4.53;4.12;;;1.90;99.90;;;;;;493480;241;27561;-69
2022/01/08 00:29:23;;;;;;;4.00;3.70;;;1.90;99.90;;;;;;493476;241;27508;-68
2022/01/08 00:31:25;;;;;;;4.32;3.70;;;1.80;99.90;;;;;;493467;241;27555;-68
2022/01/08 00:33:26;;;;;;;4.30;3.90;;;1.80;99.90;;;;;;493489;241;27474;-68
2022/01/08 00:35:27;;;;;;;3.80;3.40;;;1.90;99.90;;;;;;493470;241;27540;-68
2022/01/08 00:37:29;;;;;;;4.07;3.67;;;1.90;99.90;;;;;;493458;241;27534;-68
2022/01/08 00:39:30;;;;;;;4.22;3.60;;;1.90;99.90;;;;;;493471;241;27938;-68
2022/01/08 00:41:31;;;;;;;4.20;3.70;;;1.80;99.90;;;;;;493466;238;28086;-68
2022/01/08 00:43:32;;;;;;;4.40;4.00;;;1.80;99.90;;;;;;493500;241;27915;-69
2022/01/08 00:45:33;;;;;;;4.53;3.97;;;1.80;99.90;;;;;;493477;241;27968;-69
2022/01/08 00:47:35;;;;;;;3.87;3.58;;;1.80;99.90;;;;;;493440;241;27468;-68
2022/01/08 00:49:37;;;;;;;4.90;3.87;;;1.80;99.90;;;;;;493479;241;27512;-68
2022/01/08 00:51:37;;;;;;;3.92;3.60;;;1.80;99.90;;;;;;493501;241;27529;-68
2022/01/08 00:53:38;;;;;;;4.62;3.62;;;1.70;99.90;;;;;;493503;241;27468;-68
2022/01/08 00:55:40;;;;;;;4.97;4.10;;;1.70;99.90;;;;;;493501;241;27646;-68
2022/01/08 00:57:41;;;;;;;4.65;4.15;;;1.70;99.90;;;;;;493487;241;27474;-68
2022/01/08 00:59:42;;;;;;;7.72;3.55;;;1.70;99.90;;;;;;493469;241;27523;-69
2022/01/08 01:01:43;;;;;;;5.45;4.85;;;1.60;99.90;;;;;;493510;241;27652;-68
2022/01/08 01:03:45;;;;;;;5.35;4.10;;;1.60;99.90;;;;;;493507;241;27477;-68
2022/01/08 01:05:46;;;;;;;4.40;3.75;;;1.60;99.90;;;;;;493503;241;27580;-68
2022/01/08 01:07:47;;;;;;;4.03;3.62;;;1.60;99.90;;;;;;493486;241;28009;-69
2022/01/08 01:09:48;;;;;;;7.40;3.62;;;1.60;99.90;;;;;;493481;241;27947;-68
2022/01/08 01:11:55;;;;;;;3.45;3.15;;;1.60;99.90;;;;;;493540;241;27974;-68
2022/01/08 01:13:51;;;;;;;2.60;2.45;;;1.60;99.90;;;;;;493446;241;27997;-68
2022/01/08 01:15:52;;;;;;;3.17;2.87;;;1.60;99.90;;;;;;493473;241;27500;-68
2022/01/08 01:17:53;;;;;;;2.72;2.53;;;1.60;99.90;;;;;;493490;241;27467;-68
2022/01/08 01:19:55;;;;;;;2.60;2.40;;;1.60;99.90;;;;;;493502;241;27493;-68
2022/01/08 01:21:58;;;;;;;3.00;2.80;;;1.60;99.90;;;;;;493483;241;27496;-68
2022/01/08 01:23:58;;;;;;;2.75;2.55;;;1.60;99.90;;;;;;493466;241;27520;-68
2022/01/08 01:26:02;;;;;;;2.80;2.60;;;1.60;99.90;;;;;;493488;241;27604;-68
2022/01/08 01:28:18;;;;;;;3.05;2.42;;;1.60;99.90;;;;;;493446;241;27491;-68
2022/01/08 01:30:14;;;;;;;2.35;2.20;;;1.60;99.90;;;;;;493456;241;27519;-68
2022/01/08 01:41:49;;;;;;;2.10;2.00;;;1.60;99.90;;;;;;493498;241;27610;-68
2022/01/08 01:48:20;;;;;;;2.05;1.95;;;1.60;99.90;;;;;;493465;241;27595;-68
2022/01/08 01:50:20;;;;;;;2.17;1.98;;;1.70;99.90;;;;;;493460;241;27608;-68
2022/01/08 01:52:22;;;;;;;1.87;1.77;;;1.70;99.90;;;;;;493521;241;27484;-69
2022/01/08 01:54:23;;;;;;;1.90;1.80;;;1.70;99.90;;;;;;490528;241;27520;-69
2022/01/08 01:56:24;;;;;;;1.65;1.55;;;1.70;99.90;;;;;;486110;242;27388;-68
2022/01/08 01:58:25;;;;;;;1.73;1.62;;;1.70;99.90;;;;;;486109;242;27417;-68
2022/01/08 02:00:27;;;;;;;1.80;1.70;;;1.70;99.90;;;;;;486143;242;27820;-68
2022/01/08 02:02:28;;;;;;;1.60;1.50;;;1.70;99.90;;;;;;486131;244;27879;-68
2022/01/08 02:04:29;;;;;;;1.70;1.60;;;1.60;99.90;;;;;;486103;242;27892;-68
2022/01/08 02:06:30;;;;;;;1.80;1.70;;;1.50;99.90;;;;;;486121;242;27892;-68
2022/01/08 02:08:32;;;;;;;1.80;1.70;;;1.50;99.90;;;;;;486097;242;27416;-69
2022/01/08 02:10:33;;;;;;;1.50;1.40;;;1.50;99.90;;;;;;486139;242;27520;-68
2022/01/08 02:12:34;;;;;;;1.60;1.50;;;1.60;99.90;;;;;;486139;242;27489;-68
2022/01/08 02:14:35;;;;;;;1.30;1.30;;;1.60;99.90;;;;;;486134;242;27400;-68
2022/01/08 02:16:37;;;;;;;1.20;1.20;;;1.60;99.90;;;;;;486121;242;27496;-68
2022/01/08 02:18:38;;;;;;;1.52;1.50;;;1.60;99.90;;;;;;486115;242;27505;-69
2022/01/08 02:20:39;;;;;;;1.30;1.30;;;1.60;99.90;;;;;;486093;242;27507;-69
2022/01/08 02:22:40;;;;;;;1.30;1.30;;;1.60;99.90;;;;;;486117;244;27392;-68
2022/01/08 02:24:42;;;;;;;1.33;1.33;;;1.60;99.90;;;;;;486079;242;27451;-69
2022/01/08 02:26:43;;;;;;;1.35;1.35;;;1.60;99.90;;;;;;486110;242;27365;-68
2022/01/08 02:28:44;;;;;;;1.30;1.30;;;1.60;99.90;;;;;;486095;242;27903;-68
2022/01/08 02:30:45;;;;;;;1.30;1.30;;;1.60;99.90;;;;;;486127;242;27927;-69
2022/01/08 02:32:47;;;;;;;1.37;1.37;;;1.60;99.90;;;;;;486134;242;28008;-69
2022/01/08 02:34:48;;;;;;;1.15;1.15;;;1.60;99.90;;;;;;486105;242;28001;-69
2022/01/08 02:36:49;;;;;;;1.20;1.20;;;1.60;99.90;;;;;;486115;242;27370;-69
2022/01/08 02:38:50;;;;;;;1.10;1.10;;;1.60;99.90;;;;;;486100;242;27523;-69
2022/01/08 02:41:00;;;;;;;1.27;1.27;;;1.60;99.90;;;;;;486137;242;27530;-69
2022/01/08 02:43:03;;;;;;;1.10;1.10;;;1.60;99.90;;;;;;486120;244;27428;-69
2022/01/08 02:44:58;;;;;;;1.10;1.10;;;1.60;99.90;;;;;;486222;240;27473;-68
2022/01/08 02:47:00;;;;;;;1.27;1.27;;;1.60;99.90;;;;;;486097;242;27834;-69
2022/01/08 02:49:01;;;;;;;1.20;1.20;;;1.60;99.90;;;;;;486116;242;27955;-69
2022/01/08 02:51:02;;;;;;;1.20;1.20;;;1.60;99.90;;;;;;486133;242;27896;-69
2022/01/08 02:53:03;;;;;;;1.40;1.30;;;1.60;99.90;;;;;;486126;242;27865;-69
2022/01/08 02:55:05;;;;;;;1.50;1.50;;;1.60;99.90;;;;;;486093;242;27477;-69
2022/01/08 02:57:06;;;;;;;1.20;1.20;;;1.60;99.90;;;;;;486111;242;27380;-69
2022/01/08 02:59:07;;;;;;;1.40;1.40;;;1.60;99.90;;;;;;486092;242;27425;-69
2022/01/08 03:01:08;;;;;;;1.37;1.37;;;1.50;99.90;;;;;;486120;242;27420;-69
2022/01/08 03:03:10;;;;;;;1.23;1.23;;;1.60;99.90;;;;;;486123;242;27372;-69
2022/01/08 03:05:13;;;;;;;1.23;1.23;;;1.60;99.90;;;;;;486084;242;27483;-69
2022/01/08 03:07:15;;;;;;;1.48;1.40;;;1.50;99.90;;;;;;485898;242;27932;-69
2022/01/08 03:09:16;;;;;;;1.17;1.17;;;1.50;99.90;;;;;;486080;242;27857;-69
2022/01/08 03:11:17;;;;;;;1.27;1.27;;;1.50;99.90;;;;;;486111;242;28013;-69
2022/01/08 03:13:19;;;;;;;1.12;1.12;;;1.50;99.90;;;;;;486104;242;27892;-69
2022/01/08 03:15:20;;;;;;;1.45;1.35;;;1.50;99.90;;;;;;486131;242;27542;-69
2022/01/08 03:17:21;;;;;;;1.83;1.73;;;1.40;99.90;;;;;;486090;242;27491;-69
2022/01/08 03:19:23;;;;;;;1.40;1.40;;;1.40;99.90;;;;;;486096;242;27441;-69
2022/01/08 03:21:24;;;;;;;1.40;1.40;;;1.40;99.90;;;;;;486102;242;27432;-69
2022/01/08 03:23:34;;;;;;;1.20;1.20;;;1.40;99.90;;;;;;486139;242;27499;-69
2022/01/08 03:25:27;;;;;;;2.05;1.40;;;1.40;99.90;;;;;;486210;242;27457;-69
2022/01/08 03:27:28;;;;;;;1.20;1.20;;;1.30;99.90;;;;;;486118;242;27452;-69
2022/01/08 03:29:30;;;;;;;1.65;1.55;;;1.30;99.90;;;;;;486095;242;27421;-69
2022/01/08 03:31:31;;;;;;;1.50;1.40;;;1.30;99.90;;;;;;486099;242;27987;-69
2022/01/08 03:33:32;;;;;;;1.83;1.23;;;1.30;99.90;;;;;;486112;242;27937;-69
2022/01/08 03:35:33;;;;;;;1.50;1.50;;;1.30;99.90;;;;;;486096;242;27428;-69
2022/01/08 03:37:35;;;;;;;1.30;1.30;;;1.30;99.90;;;;;;486087;242;27932;-69
2022/01/08 03:39:36;;;;;;;1.37;1.37;;;1.20;99.90;;;;;;486113;242;27428;-69
2022/01/08 03:41:37;;;;;;;1.27;1.27;;;1.20;99.90;;;;;;486115;242;27400;-69
2022/01/08 03:43:38;;;;;;;1.55;1.45;;;1.20;99.90;;;;;;486121;242;27380;-69
2022/01/08 03:45:40;;;;;;;1.48;1.48;;;1.20;99.90;;;;;;486115;242;27537;-69
2022/01/08 03:50:00;;;;;;;1.77;1.67;;;1.20;99.90;;;;;;486124;242;27841;-69
2022/01/08 03:52:02;;;;;;;1.55;1.50;;;1.10;99.90;;;;;;486135;242;29142;-69
2022/01/08 03:54:03;;;;;;;1.75;1.65;;;1.10;99.90;;;;;;486100;242;27381;-69
2022/01/08 03:56:04;;;;;;;1.75;1.30;;;1.10;99.90;;;;;;486064;242;27402;-69
2022/01/08 03:58:05;;;;;;;1.20;1.20;;;1.10;99.90;;;;;;486109;242;27438;-69
2022/01/08 04:00:07;;;;;;;1.58;1.48;;;1.10;99.90;;;;;;486094;242;27372;-69
2022/01/08 04:02:08;;;;;;;1.25;1.25;;;1.10;99.90;;;;;;486092;242;27436;-69
2022/01/08 04:04:09;;;;;;;1.30;1.30;;;1.10;99.90;;;;;;486097;242;27493;-69
2022/01/08 04:06:10;;;;;;;1.50;1.40;;;1.10;99.90;;;;;;486078;242;27424;-69
2022/01/08 04:08:12;;;;;;;1.40;1.40;;;1.10;99.90;;;;;;486113;242;27549;-69
2022/01/08 04:10:13;;;;;;;1.60;1.50;;;1.10;99.90;;;;;;486117;242;27384;-69
2022/01/08 04:12:20;;;;;;;1.30;1.30;;;1.20;99.90;;;;;;486096;242;27425;-69
2022/01/08 04:14:17;;;;;;;1.42;1.30;;;1.00;99.90;;;;;;486121;242;27838;-69
2022/01/08 04:16:21;;;;;;;1.33;1.23;;;1.00;99.90;;;;;;486083;242;27909;-69
2022/01/08 04:18:18;;;;;;;1.30;1.30;;;1.00;99.90;;;;;;486138;242;27881;-68
2022/01/08 04:20:19;;;;;;;1.37;1.27;;;1.00;99.90;;;;;;486097;242;27851;-69
2022/01/08 04:22:21;;;;;;;1.20;1.20;;;1.00;99.90;;;;;;486113;242;27397;-69
2022/01/08 04:24:22;;;;;;;1.20;1.20;;;1.10;99.90;;;;;;486082;242;27373;-69
2022/01/08 04:26:23;;;;;;;1.10;1.10;;;1.10;99.90;;;;;;486077;242;27412;-69
2022/01/08 04:28:24;;;;;;;1.65;1.17;;;1.10;99.90;;;;;;486110;242;27443;-69
2022/01/08 04:30:26;;;;;;;1.20;1.20;;;1.10;99.90;;;;;;486109;242;27388;-69
2022/01/08 04:32:29;;;;;;;1.20;1.20;;;;;;;;;;486064;242;27429;-69
2022/01/08 04:34:32;;;;;;;1.15;1.15;;;;;;;;;;486083;243;26820;-69
2022/01/08 04:36:36;;;;;;;1.27;1.27;;;;;;;;;;486104;243;26767;-69
2022/01/08 04:38:40;;;;;;;1.20;1.20;;;;;;;;;;486120;243;26351;-69
2022/01/08 04:41:01;;;;;;;1.35;1.30;;;;;;;;;;486100;243;26409;-69
2022/01/08 04:43:04;;;;;;;1.10;1.10;;;;;;;;;;486112;243;26331;-69
2022/01/08 04:45:09;;;;;;;1.10;1.10;;;;;;;;;;486104;243;26249;-69
2022/01/08 04:47:10;;;;;;;1.25;1.15;;;;;;;;;;486080;243;26265;-69
2022/01/08 04:49:12;;;;;;;1.20;1.20;;;1.10;99.90;;;;;;486101;243;26764;-68
2022/01/08 04:51:13;;;;;;;1.20;1.10;;;1.10;99.90;;;;;;486102;242;28083;-68
2022/01/08 04:53:14;;;;;;;1.20;1.20;;;1.10;99.90;;;;;;486135;242;27840;-69
2022/01/08 04:55:15;;;;;;;1.50;1.40;;;1.00;99.90;;;;;;486113;242;29046;-68
2022/01/08 04:57:17;;;;;;;1.40;1.30;;;1.00;99.90;;;;;;486094;242;27432;-68
2022/01/08 04:59:18;;;;;;;3.58;1.67;;;1.00;99.90;;;;;;486121;242;27471;-69
2022/01/08 05:01:19;;;;;;;1.40;1.23;;;1.10;99.90;;;;;;486102;242;27499;-69
2022/01/08 05:03:20;;;;;;;3.20;1.23;;;1.10;99.90;;;;;;486124;242;27368;-69
2022/01/08 05:05:22;;;;;;;1.30;1.20;;;1.10;99.90;;;;;;486133;242;27412;-68
2022/01/08 05:07:23;;;;;;;1.12;1.12;;;1.10;99.90;;;;;;486056;242;27377;-69
2022/01/08 05:09:24;;;;;;;4.60;1.23;;;1.10;99.90;;;;;;486097;242;27380;-69
2022/01/08 05:11:27;;;;;;;1.50;1.50;;;1.10;99.90;;;;;;486094;242;27484;-69
2022/01/08 05:13:27;;;;;;;1.23;1.20;;;1.10;99.90;;;;;;486075;242;27401;-68
2022/01/08 05:15:28;;;;;;;1.25;1.20;;;1.10;99.90;;;;;;486079;242;27404;-68
2022/01/08 05:17:34;;;;;;;1.35;1.17;;;1.10;99.90;;;;;;486089;242;28773;-69
2022/01/08 05:19:50;;;;;;;1.10;1.10;;;1.10;99.90;;;;;;486145;242;27913;-69
2022/01/08 05:21:54;;;;;;;1.50;1.20;;;1.10;99.90;;;;;;486234;240;27828;-68
2022/01/08 05:23:48;;;;;;;1.50;1.30;;;1.10;99.90;;;;;;486115;242;27879;-69
2022/01/08 05:25:49;;;;;;;1.45;1.35;;;1.10;99.90;;;;;;486089;242;27428;-69
2022/01/08 05:27:50;;;;;;;1.17;1.17;;;1.10;99.90;;;;;;486081;242;27412;-69
2022/01/08 05:29:52;;;;;;;1.20;1.10;;;1.10;99.90;;;;;;486085;242;27445;-69
2022/01/08 05:31:53;;;;;;;1.83;1.20;;;1.10;99.90;;;;;;486080;242;27443;-69
2022/01/08 05:33:54;;;;;;;1.30;1.30;;;1.10;99.90;;;;;;486093;242;27420;-69
2022/01/08 05:35:55;;;;;;;1.30;1.30;;;1.20;99.90;;;;;;486095;242;27378;-69
2022/01/08 05:37:57;;;;;;;1.48;1.40;;;1.10;99.90;;;;;;486125;242;27389;-69
2022/01/08 05:39:58;;;;;;;2.20;1.70;;;1.10;99.90;;;;;;486100;242;27412;-68
2022/01/08 05:41:59;;;;;;;1.83;1.65;;;1.20;99.90;;;;;;486113;242;27393;-69
2022/01/08 05:44:00;;;;;;;1.73;1.62;;;1.20;99.90;;;;;;486125;242;27409;-69
2022/01/08 05:46:02;;;;;;;2.80;1.58;;;1.20;99.90;;;;;;486053;242;28621;-69
2022/01/08 05:48:04;;;;;;;3.00;1.77;;;1.20;99.90;;;;;;486090;242;27857;-68
2022/01/08 05:50:04;;;;;;;1.48;1.40;;;1.10;99.90;;;;;;486067;242;27959;-68
2022/01/08 05:52:07;;;;;;;2.80;1.77;;;1.20;99.90;;;;;;486068;242;29034;-69
2022/01/08 05:54:07;;;;;;;1.98;1.80;;;1.20;99.90;;;;;;486072;242;27412;-69
2022/01/08 05:56:08;;;;;;;1.50;1.40;;;1.20;99.90;;;;;;486077;242;27452;-69
2022/01/08 05:58:09;;;;;;;1.50;1.40;;;1.20;99.90;;;;;;486097;242;27444;-68
2022/01/08 06:00:10;;;;;;;3.33;1.50;;;1.20;99.90;;;;;;486093;242;27412;-69
2022/01/08 06:02:12;;;;;;;1.45;1.37;;;1.20;99.90;;;;;;486083;242;27521;-69
2022/01/08 06:04:13;;;;;;;1.70;1.60;;;1.10;99.90;;;;;;486089;242;27416;-69
2022/01/08 06:06:14;;;;;;;4.85;1.75;;;1.20;99.90;;;;;;486076;242;27823;-69
2022/01/08 06:08:15;;;;;;;2.78;1.60;;;1.20;99.90;;;;;;486124;242;27471;-69
2022/01/08 06:10:18;;;;;;;1.80;1.70;;;1.20;99.90;;;;;;486116;242;27923;-69
2022/01/08 06:12:18;;;;;;;2.62;1.98;;;1.20;99.90;;;;;;486122;242;27896;-69
2022/01/08 06:14:19;;;;;;;3.30;1.80;;;1.20;99.90;;;;;;486091;242;27898;-69
2022/01/08 06:16:20;;;;;;;1.55;1.45;;;1.20;99.90;;;;;;486115;242;27963;-69
2022/01/08 06:18:22;;;;;;;1.75;1.65;;;1.20;99.90;;;;;;486130;242;27400;-69
2022/01/08 06:20:23;;;;;;;1.67;1.58;;;1.20;99.90;;;;;;486137;242;27400;-69
2022/01/08 06:22:24;;;;;;;1.48;1.40;;;1.20;99.90;;;;;;486111;242;27364;-69
2022/01/08 06:24:25;;;;;;;1.67;1.60;;;1.20;99.90;;;;;;486116;242;27417;-69
2022/01/08 06:26:27;;;;;;;1.42;1.42;;;1.20;99.90;;;;;;486114;242;27384;-69
2022/01/08 06:28:28;;;;;;;1.70;1.60;;;1.20;99.90;;;;;;486089;242;27366;-69
2022/01/08 06:30:29;;;;;;;5.18;1.87;;;1.20;99.90;;;;;;486110;244;27469;-69
2022/01/08 06:32:30;;;;;;;1.75;1.65;;;1.20;99.90;;;;;;486118;242;27376;-69
2022/01/08 06:34:32;;;;;;;1.73;1.62;;;1.20;99.90;;;;;;486120;242;27448;-69
2022/01/08 06:36:33;;;;;;;1.92;1.70;;;1.20;99.90;;;;;;486106;242;27495;-69
2022/01/08 06:38:34;;;;;;;1.65;1.55;;;1.20;99.90;;;;;;486132;242;27923;-68
2022/01/08 06:40:35;;;;;;;1.67;1.58;;;1.20;99.90;;;;;;486136;242;27980;-68
2022/01/08 06:42:37;;;;;;;1.83;1.75;;;1.20;99.90;;;;;;486114;242;27933;-68
2022/01/08 06:44:38;;;;;;;2.03;1.87;;;1.20;99.90;;;;;;486075;242;27972;-69
2022/01/08 06:46:40;;;;;;;1.95;1.80;;;1.20;99.90;;;;;;486113;242;27392;-69
2022/01/08 06:48:41;;;;;;;3.33;2.85;;;1.20;99.90;;;;;;486100;242;27500;-69
2022/01/08 06:50:42;;;;;;;3.33;2.65;;;1.20;99.90;;;;;;486103;242;27499;-69
2022/01/08 06:52:43;;;;;;;2.75;2.45;;;1.10;99.90;;;;;;486098;242;27373;-68
2022/01/08 06:54:44;;;;;;;3.25;2.25;;;1.10;99.90;;;;;;486105;242;27420;-69
2022/01/08 06:56:45;;;;;;;1.92;1.83;;;1.10;99.90;;;;;;486105;242;27463;-68
2022/01/08 06:58:47;;;;;;;2.50;2.00;;;1.10;99.90;;;;;;487025;241;27389;-69
2022/01/08 07:00:48;;;;;;;1.98;1.87;;;1.10;99.90;;;;;;493500;241;27593;-69
2022/01/08 07:02:49;;;;;;;2.03;1.83;;;1.10;99.90;;;;;;493514;241;27540;-69
2022/01/08 07:04:50;;;;;;;3.55;2.12;;;1.10;99.90;;;;;;493495;241;27488;-69
2022/01/08 07:06:52;;;;;;;1.70;1.60;;;1.10;99.90;;;;;;493476;241;28568;-69
2022/01/08 07:08:53;;;;;;;1.70;1.60;;;1.20;99.90;;;;;;493502;241;27992;-69
2022/01/08 07:10:54;;;;;;;2.50;2.10;;;1.10;99.90;;;;;;493489;241;28114;-68
2022/01/08 07:12:55;;;;;;;2.20;2.10;;;1.10;99.90;;;;;;493461;241;27473;-69
2022/01/08 07:14:57;;;;;;;2.10;2.00;;;1.10;99.90;;;;;;493448;241;27507;-68
2022/01/08 07:16:58;;;;;;;2.60;1.90;;;1.10;99.90;;;;;;493487;241;27496;-68
2022/01/08 07:18:59;;;;;;;1.95;1.85;;;1.00;99.90;;;;;;493508;241;27480;-69
2022/01/08 07:21:00;;;;;;;3.85;2.67;;;1.00;99.90;;;;;;493486;241;27562;-69
2022/01/08 07:23:02;;;;;;;4.40;2.28;;;1.00;99.90;;;;;;493460;241;27526;-69
2022/01/08 07:25:03;;;;;;;2.90;2.50;;;1.00;99.90;;;;;;493465;241;27504;-68
2022/01/08 07:27:04;;;;;;;8.38;2.85;;;0.90;99.90;;;;;;493487;241;27539;-69
2022/01/08 07:29:05;;;;;;;4.30;2.47;;;0.80;99.90;;;;;;493491;241;27466;-69
2022/01/08 07:31:07;;;;;;;4.55;2.60;;;0.80;99.90;;;;;;493480;241;27532;-69
2022/01/08 07:33:08;;;;;;;4.40;3.00;;;0.80;99.90;;;;;;493475;241;27929;-69
2022/01/08 07:35:10;;;;;;;3.35;2.87;;;0.80;99.90;;;;;;493476;241;27960;-68
2022/01/08 07:37:10;;;;;;;4.93;3.33;;;0.80;99.90;;;;;;493476;241;27976;-68
2022/01/08 07:39:12;;;;;;;4.12;2.85;;;0.80;99.90;;;;;;493499;241;28043;-69
2022/01/08 07:41:13;;;;;;;5.12;3.15;;;0.70;99.90;;;;;;493488;241;27580;-69
2022/01/08 07:43:14;;;;;;;3.58;3.22;;;0.70;99.90;;;;;;493447;241;27471;-68
2022/01/08 07:45:15;;;;;;;4.53;3.20;;;0.60;99.90;;;;;;493437;241;27552;-69
2022/01/08 07:47:17;;;;;;;3.45;3.15;;;0.60;99.90;;;;;;493294;241;27504;-69
2022/01/08 07:49:18;;;;;;;3.92;3.40;;;0.80;99.90;;;;;;493329;241;27551;-68
2022/01/08 07:51:19;;;;;;;4.85;3.58;;;0.90;99.90;;;;;;493248;241;27545;-69
2022/01/08 07:53:20;;;;;;;4.40;3.75;;;1.00;99.90;;;;;;493229;241;27504;-69
2022/01/08 07:55:22;;;;;;;4.50;3.40;;;1.00;99.90;;;;;;493437;241;27512;-68
2022/01/08 07:57:23;;;;;;;5.18;4.20;;;1.00;99.90;;;;;;493455;241;27605;-69
2022/01/08 07:59:24;;;;;;;5.35;3.92;;;1.00;99.90;;;;;;493477;241;27511;-69
2022/01/08 08:01:25;;;;;;;4.12;3.75;;;1.00;99.90;;;;;;493469;241;27937;-69
2022/01/08 08:03:27;;;;;;;3.85;3.55;;;1.00;99.90;;;;;;493489;241;28632;-69
2022/01/08 08:05:30;;;;;;;3.40;3.10;;;1.00;99.90;;;;;;493498;241;27928;-68
2022/01/08 08:07:29;;;;;;;4.20;3.80;;;0.90;99.90;;;;;;493454;241;27964;-68
2022/01/08 08:09:30;;;;;;;4.62;3.70;;;0.90;99.90;;;;;;493491;241;27518;-69
2022/01/08 08:11:32;;;;;;;3.62;3.33;;;0.80;99.90;;;;;;493452;241;27516;-69
2022/01/08 08:13:33;;;;;;;3.83;3.37;;;0.80;99.90;;;;;;493458;241;27503;-68
2022/01/08 08:15:34;;;;;;;3.53;3.22;;;0.90;99.90;;;;;;493487;241;27545;-69
2022/01/08 08:17:35;;;;;;;3.67;3.03;;;0.90;99.90;;;;;;493513;241;27563;-69
2022/01/08 08:19:37;;;;;;;4.75;3.50;;;0.90;99.90;;;;;;493483;241;27480;-69
2022/01/08 08:21:38;;;;;;;4.72;3.67;;;1.00;99.90;;;;;;493488;241;27509;-68
2022/01/08 08:23:39;;;;;;;7.37;3.87;;;0.90;99.90;;;;;;493492;241;27493;-69
2022/01/08 08:25:40;;;;;;;4.32;3.83;;;1.00;99.90;;;;;;493483;241;27484;-69
2022/01/08 08:27:42;;;;;;;5.28;3.70;;;1.00;99.90;;;;;;493435;241;27540;-68
2022/01/08 08:29:43;;;;;;;4.55;3.80;;;1.00;99.90;;;;;;493473;241;27990;-70
2022/01/08 08:31:44;;;;;;;3.65;3.30;;;1.00;99.90;;;;;;493455;241;27978;-68
2022/01/08 08:33:45;;;;;;;5.47;3.70;;;1.00;99.90;;;;;;493519;241;28074;-68
2022/01/08 08:35:47;;;;;;;6.12;4.12;;;1.00;99.90;;;;;;493503;241;28002;-68
2022/01/08 08:37:48;;;;;;;5.55;4.53;;;1.00;99.90;;;;;;493491;241;27580;-68
2022/01/08 08:39:49;;;;;;;5.70;5.12;;;1.00;99.90;;;;;;493470;241;27473;-68
2022/01/08 08:41:50;;;;;;;7.22;4.60;;;0.90;99.90;;;;;;493453;241;27530;-68
2022/01/08 08:43:52;;;;;;;6.45;5.10;;;0.90;99.90;;;;;;493503;241;27547;-68
2022/01/08 08:45:53;;;;;;;8.60;5.30;;;0.90;99.90;;;;;;493477;241;27445;-68
2022/01/08 08:47:56;;;;;;;5.62;4.10;;;0.80;99.90;;;;;;493497;241;27591;-68
2022/01/08 08:49:55;;;;;;;6.60;4.50;;;0.80;99.90;;;;;;493461;241;27490;-68
2022/01/08 08:51:57;;;;;;;18.67;5.30;;;0.80;99.90;;;;;;493474;241;27505;-68
2022/01/08 08:53:58;;;;;;;9.73;5.65;;;0.80;99.90;;;;;;493493;241;27511;-68
2022/01/08 08:55:59;;;;;;;7.03;4.95;;;0.80;99.90;;;;;;493488;241;28045;-69
2022/01/08 08:58:00;;;;;;;7.50;5.00;;;0.80;99.90;;;;;;493466;241;28004;-68
2022/01/08 09:00:02;;;;;;;7.68;4.72;;;0.80;99.90;;;;;;493481;241;28007;-69
2022/01/08 09:02:03;;;;;;;7.18;4.90;;;0.80;99.90;;;;;;493489;241;27921;-69
2022/01/08 09:04:04;;;;;;;8.95;5.07;;;0.80;99.90;;;;;;493490;241;27657;-69
2022/01/08 09:06:05;;;;;;;5.53;4.50;;;1.00;99.90;;;;;;493475;241;27531;-68
2022/01/08 09:08:07;;;;;;;8.27;5.05;;;1.10;99.90;;;;;;493489;241;27501;-69
2022/01/08 09:10:09;;;;;;;7.43;4.80;;;1.20;99.90;;;;;;493493;241;27500;-68
2022/01/08 09:12:10;;;;;;;7.75;5.28;;;1.20;99.90;;;;;;493499;241;27572;-68
2022/01/08 09:14:10;;;;;;;8.02;4.90;;;1.20;99.90;;;;;;493524;241;27549;-68
2022/01/08 09:16:12;;;;;;;9.02;4.62;;;1.20;99.90;;;;;;493526;241;27515;-68
2022/01/08 09:18:14;;;;;;;9.10;4.93;;;1.30;99.90;;;;;;493516;241;27529;-68
2022/01/08 09:20:15;;;;;;;5.85;4.70;;;1.30;99.90;;;;;;493512;241;27556;-69
2022/01/08 09:22:16;;;;;;;7.25;5.25;;;1.30;99.90;;;;;;493497;241;27466;-69
2022/01/08 09:24:20;;;;;;;8.55;6.57;;;1.40;99.90;;;;;;493487;241;27983;-69
2022/01/08 09:26:19;;;;;;;8.52;6.60;;;1.40;99.90;;;;;;493504;240;28085;-68
2022/01/08 09:28:20;;;;;;;8.88;6.60;;;1.50;99.90;;;;;;493495;241;28174;-68
2022/01/08 09:30:21;;;;;;;6.75;5.22;;;1.50;99.90;;;;;;493534;241;27987;-68
2022/01/08 09:32:23;;;;;;;7.97;5.90;;;1.60;99.90;;;;;;493498;241;27942;-69
2022/01/08 09:34:24;;;;;;;5.95;4.60;;;1.60;99.90;;;;;;493515;241;27499;-68
2022/01/08 09:36:25;;;;;;;8.77;4.80;;;1.70;99.90;;;;;;493481;241;27586;-68
2022/01/08 09:38:26;;;;;;;11.05;4.95;;;1.60;99.90;;;;;;493515;241;27454;-69
2022/01/08 09:40:28;;;;;;;5.10;3.90;;;1.70;99.90;;;;;;493489;241;27566;-69
2022/01/08 09:42:29;;;;;;;7.00;4.50;;;1.70;99.90;;;;;;493466;241;27561;-69
2022/01/08 09:44:30;;;;;;;8.25;4.80;;;1.70;99.90;;;;;;493492;241;27504;-69
2022/01/08 09:46:31;;;;;;;6.93;4.82;;;1.60;99.90;;;;;;493468;241;27544;-69
2022/01/08 09:48:32;;;;;;;6.18;4.20;;;1.70;99.90;;;;;;493467;241;27485;-69
2022/01/08 09:50:34;;;;;;;7.32;4.10;;;1.60;99.90;;;;;;493501;241;27512;-69
2022/01/08 09:52:35;;;;;;;7.70;4.37;;;1.60;99.90;;;;;;493502;241;27904;-69
2022/01/08 09:54:36;;;;;;;10.00;4.32;;;1.70;99.90;;;;;;493481;241;28001;-69
2022/01/08 09:56:37;;;;;;;7.60;4.87;;;1.70;99.90;;;;;;493512;241;28007;-69
2022/01/08 09:58:39;;;;;;;6.15;4.22;;;1.60;99.90;;;;;;493514;241;27557;-69
2022/01/08 10:00:40;;;;;;;7.50;3.87;;;1.60;99.90;;;;;;493515;241;27498;-69
2022/01/08 10:02:41;;;;;;;4.45;3.42;;;1.70;99.90;;;;;;493467;241;27507;-69
2022/01/08 10:04:42;;;;;;;10.02;4.45;;;1.70;99.90;;;;;;493485;241;27504;-69
2022/01/08 10:06:44;;;;;;;5.85;4.30;;;1.80;99.90;;;;;;493506;241;27490;-69
2022/01/08 10:08:45;;;;;;;7.10;4.10;;;1.70;99.90;;;;;;493482;241;27480;-69
2022/01/08 10:10:46;;;;;;;8.30;5.80;;;1.70;99.90;;;;;;493475;241;27604;-69
2022/01/08 10:12:53;;;;;;;8.95;6.35;;;1.70;99.90;;;;;;493464;241;27472;-69
2022/01/08 10:17:14;;;;;;;8.52;6.87;;;1.70;99.90;;;;;;493504;241;28010;-69
2022/01/08 10:19:15;;;;;;;7.45;6.03;;;1.60;99.90;;;;;;493495;241;27935;-69
2022/01/08 10:21:16;;;;;;;6.90;5.60;;;1.60;99.90;;;;;;493482;241;28075;-69
2022/01/08 10:23:18;;;;;;;8.05;5.50;;;1.60;99.90;;;;;;493495;241;27462;-69
2022/01/08 10:25:19;;;;;;;8.15;4.80;;;1.60;99.90;;;;;;493516;241;27476;-69
2022/01/08 10:27:20;;;;;;;7.43;4.80;;;1.50;99.90;;;;;;493500;241;27506;-69
2022/01/08 10:29:21;;;;;;;7.93;4.62;;;1.60;99.90;;;;;;493490;241;27520;-69
2022/01/08 10:31:23;;;;;;;5.50;4.20;;;1.60;99.90;;;;;;493464;241;27597;-69
2022/01/08 10:33:24;;;;;;;8.85;4.10;;;1.70;99.90;;;;;;493473;241;27485;-68
2022/01/08 10:35:25;;;;;;;7.30;3.87;;;1.80;99.90;;;;;;493548;241;27565;-69
2022/01/08 10:37:26;;;;;;;7.68;4.10;;;1.70;99.90;;;;;;493509;241;27499;-68
2022/01/08 10:39:33;;;;;;;3.97;3.20;;;1.70;99.90;;;;;;493500;241;27462;-69
2022/01/08 10:41:29;;;;;;;4.72;4.22;;;1.80;99.90;;;;;;493520;240;27516;-68
2022/01/08 10:43:30;;;;;;;4.82;3.97;;;1.70;99.90;;;;;;493482;241;28032;-69
2022/01/08 10:45:31;;;;;;;6.15;3.90;;;1.70;99.90;;;;;;493506;241;28108;-68
2022/01/08 10:47:33;;;;;;;6.62;3.35;;;1.80;99.90;;;;;;493495;241;27974;-69
2022/01/08 10:49:34;;;;;;;5.65;3.65;;;1.90;99.90;;;;;;493473;241;27492;-69
2022/01/08 10:51:35;;;;;;;5.15;3.80;;;2.00;99.90;;;;;;493480;241;27520;-69
2022/01/08 10:53:36;;;;;;;4.10;3.70;;;2.00;99.90;;;;;;493479;238;27472;-69
2022/01/08 10:55:38;;;;;;;5.37;4.03;;;2.00;99.90;;;;;;493540;241;27493;-68
2022/01/08 10:57:39;;;;;;;4.00;3.55;;;2.10;99.90;;;;;;493506;241;27505;-69
2022/01/08 10:59:40;;;;;;;6.70;4.47;;;2.30;99.90;;;;;;493517;241;27574;-69
2022/01/08 11:01:41;;;;;;;4.62;3.95;;;2.40;99.90;;;;;;493489;241;27553;-69